• Join FlightAware (Why Join?)
  • Login
  • US Flag 
04:25AM EDT


 

Airport Tracker/Info


-or-


 

Live Flight TrackerFlight Track Log ✈ SWA208 ✈ 14-Jun-2013 ✈ KSFO - KSNA

Flight Track Log - Related Links

Times and Time Zones

All times are in EDT time to prevent confusion due to time zone crossing. See the SWA208 flight status page for this flight to view local times or setup timezone preferences in your user account.

Time Position Orientation Groundspeed Altitude Reporting Facility
EDT Latitude Longitude Course Direction KTS MPH feet Rate Location/Type
10:25PM 37.6967 -122.3633 North 210 242 4,700  Level Oakland Center
10:26PM 37.7222 -122.4314 295° West 265 305 8,000 3,060 Climbing Oakland Center
10:27PM 37.6439 -122.4606 196° South 301 346 11,000 3,000 Climbing Oakland Center
10:28PM 37.5458 -122.4769 188° South 348 400 14,200 3,180 Climbing Oakland Center
10:29PM 37.4422 -122.4931 187° South 369 425 17,500 3,000 Climbing Oakland Center
10:30PM 37.3344 -122.5103 187° South 387 445 20,400 2,700 Climbing Oakland Center
10:31PM 37.2200 -122.5294 188° South 408 470 23,100 2,580 Climbing Oakland Center
10:32PM 37.1117 -122.4756 158° South 435 501 25,700 2,280 Climbing Oakland Center
10:33PM 37.0108 -122.3875 145° Southeast 442 509 27,800 2,160 Climbing Oakland Center
10:34PM 36.8853 -122.2786 145° Southeast 458 527 30,100 2,220 Climbing Oakland Center
10:35PM 36.7808 -122.1869 145° Southeast 461 531 32,400 2,040 Climbing Oakland Center
10:36PM 36.6758 -122.1003 146° Southeast 457 526 34,300 1,500 Climbing Oakland Center
10:38PM 36.4689 -121.9228 145° Southeast 452 520 37,000 840 Climbing Oakland Center
10:39PM 36.3656 -121.8347 146° Southeast 451 519 37,000  Level Oakland Center
10:40PM 36.2603 -121.7450 145° Southeast 449 517 37,000  Level Oakland Center
10:41PM 36.1578 -121.6581 146° Southeast 447 514 37,000  Level Oakland Center
10:42PM 36.0547 -121.5697 145° Southeast 448 516 37,000 660 Level Oakland Center
10:43PM 35.9531 -121.4842 146° Southeast 443 510 38,400 960 Climbing Oakland Center
10:44PM 35.8508 -121.3975 145° Southeast 446 513 39,000 240 Climbing Oakland Center
10:45PM 35.7250 -121.2928 146° Southeast 454 522 39,000  Level Oakland Center
10:46PM 35.6206 -121.2058 146° Southeast 454 522 39,000  Level Oakland Center
10:47PM 35.5189 -121.1186 145° Southeast 450 518 39,000  Level Oakland Center
10:48PM 35.4094 -121.0328 147° Southeast 448 516 39,000  Level Los Angeles Center
10:49PM 35.3050 -120.9517 148° Southeast 444 511 39,000  Level Los Angeles Center
10:50PM 35.1806 -120.8547 148° Southeast 442 509 39,000  Level Los Angeles Center
10:51PM 35.0775 -120.7744 147° Southeast 440 506 39,000  Level Los Angeles Center
10:52PM 34.9736 -120.6931 147° Southeast 442 509 39,000  Level Los Angeles Center
10:53PM 34.8700 -120.6128 148° Southeast 441 507 39,000  Level Los Angeles Center
10:54PM 34.7561 -120.5236 147° Southeast 442 509 39,000  Level Los Angeles Center
10:55PM 34.6514 -120.4431 148° Southeast 446 513 39,000  Level Los Angeles Center
10:56PM 34.5469 -120.3639 148° Southeast 444 511 39,000  Level Los Angeles Center
10:57PM 34.4433 -120.2847 148° Southeast 443 510 39,000  Level Los Angeles Center
10:59PM 34.3389 -120.2061 148° Southeast 443 510 39,000 -600 Level Los Angeles Center
11:00PM 34.2217 -120.0806 138° Southeast 456 525 37,700 -2,040 Descending Los Angeles Center
11:01PM 34.1544 -119.9442 121° Southeast 472 543 34,900 -3,300 Descending Los Angeles Center
11:02PM 34.0725 -119.7808 121° Southeast 477 549 30,900 -3,420 Descending Los Angeles Center
11:03PM 34.0033 -119.6447 121° Southeast 477 549 27,900 -2,820 Descending Los Angeles Center
11:04PM 33.9386 -119.5158 121° Southeast 454 522 25,200 -2,580 Descending Los Angeles Center
11:05PM 33.8747 -119.3883 121° Southeast 448 516 22,700 -2,460 Descending Los Angeles Center
11:06PM 33.8153 -119.2683 121° Southeast 422 486 20,200 -2,340 Descending Los Angeles Center
11:07PM 33.7558 -119.1542 122° Southeast 407 468 17,900 -2,520 Descending Los Angeles Center
11:08PM 33.6881 -119.0236 122° Southeast 388 447 15,000 -2,580 Descending Los Angeles Center
11:09PM 33.6342 -118.9169 121° Southeast 378 435 12,600 -2,100 Descending Los Angeles Center
11:10PM 33.5975 -118.8317 117° Southeast 378 435 10,800 -1,380 Descending Los Angeles Center
11:11PM 33.5758 -118.7011 101° East 331 381 9,800 -1,080 Descending Los Angeles Center
11:12PM 33.5850 -118.6003 84° East 307 353 8,600 -1,440 Descending Los Angeles Center
11:13PM 33.5972 -118.4858 83° East 291 335 6,900 -1,500 Descending Los Angeles Center
11:14PM 33.6067 -118.3933 83° East 286 329 5,500 -960 Descending Los Angeles Center
11:15PM 33.6150 -118.3028 84° East 282 325 5,000 -300 Descending Los Angeles Center
11:16PM 33.6447 -118.2286 64° Northeast 260 299 5,000 -60 Level Los Angeles Center
11:17PM 33.6733 -118.1578 64° Northeast 245 282 4,900 -660 Descending Los Angeles Center
11:18PM 33.6667 -118.0833 96° East 229 264 3,800 -1,020 Descending Southern California TRACON
11:19PM 33.6833 -118.0000 76° East 232 267 3,000 -540 Descending Southern California TRACON
11:20PM 33.7167 -117.9500 51° Northeast 227 261 2,800 -300 Descending Southern California TRACON
11:21PM 33.7500 -117.9000 51° Northeast 183 211 2,500 -660 Descending Southern California TRACON
11:22PM 33.7500 -117.8500 90° East 154 177 1,500 -840 Descending Southern California TRACON
11:23PM 33.7167 -117.8500 180° South 125 144 900 -660 Descending Southern California TRACON
11:24PM 33.6833 -117.8667 203° Southwest 133 153 300 -720 Descending Southern California TRACON
11:27PM 33.6757 -117.8682 203° Southwest  Level Estimated